sensor_id;sensor_type;location;lat;lon;timestamp;pressure;altitude;pressure_sealevel;temperature;humidity
27643;BME280;15053;48.618;10.024;2023-04-09T00:01:09;94828.38;;;6.86;81.73
27643;BME280;15053;48.618;10.024;2023-04-09T00:03:37;94834.31;;;6.87;81.46
27643;BME280;15053;48.618;10.024;2023-04-09T00:06:04;94837.94;;;6.86;81.82
27643;BME280;15053;48.618;10.024;2023-04-09T00:08:30;94824.72;;;6.82;82.39
27643;BME280;15053;48.618;10.024;2023-04-09T00:10:58;94829.13;;;6.87;82.08
27643;BME280;15053;48.618;10.024;2023-04-09T00:13:24;94826.31;;;6.88;82.95
27643;BME280;15053;48.618;10.024;2023-04-09T00:16:04;94828.66;;;6.90;81.43
27643;BME280;15053;48.618;10.024;2023-04-09T00:18:31;94829.91;;;6.87;82.40
27643;BME280;15053;48.618;10.024;2023-04-09T00:20:57;94823.22;;;6.86;82.53
27643;BME280;15053;48.618;10.024;2023-04-09T00:23:24;94829.91;;;6.87;82.64
27643;BME280;15053;48.618;10.024;2023-04-09T00:25:51;94825.78;;;6.86;82.05
27643;BME280;15053;48.618;10.024;2023-04-09T00:28:17;94828.09;;;6.83;82.76
27643;BME280;15053;48.618;10.024;2023-04-09T00:30:44;94824.19;;;6.80;82.35
27643;BME280;15053;48.618;10.024;2023-04-09T00:33:10;94819.50;;;6.77;83.04
27643;BME280;15053;48.618;10.024;2023-04-09T00:35:37;94828.28;;;6.76;82.18
27643;BME280;15053;48.618;10.024;2023-04-09T00:38:03;94823.13;;;6.76;83.32
27643;BME280;15053;48.618;10.024;2023-04-09T00:40:30;94825.66;;;6.71;82.86
27643;BME280;15053;48.618;10.024;2023-04-09T00:42:56;94823.09;;;6.71;82.53
27643;BME280;15053;48.618;10.024;2023-04-09T00:45:23;94818.66;;;6.67;83.63
27643;BME280;15053;48.618;10.024;2023-04-09T00:47:49;94831.63;;;6.72;83.47
27643;BME280;15053;48.618;10.024;2023-04-09T00:50:16;94826.16;;;6.68;83.52
27643;BME280;15053;48.618;10.024;2023-04-09T00:52:43;94823.56;;;6.68;83.02
27643;BME280;15053;48.618;10.024;2023-04-09T00:55:09;94835.50;;;6.69;83.42
27643;BME280;15053;48.618;10.024;2023-04-09T00:57:36;94830.84;;;6.71;83.66
27643;BME280;15053;48.618;10.024;2023-04-09T01:00:03;94836.81;;;6.72;83.38
27643;BME280;15053;48.618;10.024;2023-04-09T01:02:32;94825.16;;;6.69;83.14
27643;BME280;15053;48.618;10.024;2023-04-09T01:04:59;94828.78;;;6.73;83.64
27643;BME280;15053;48.618;10.024;2023-04-09T01:13:07;94838.38;;;6.73;83.33
27643;BME280;15053;48.618;10.024;2023-04-09T01:15:48;94835.25;;;6.71;83.23
27643;BME280;15053;48.618;10.024;2023-04-09T01:18:34;94834.19;;;6.67;83.57
27643;BME280;15053;48.618;10.024;2023-04-09T01:21:12;94827.16;;;6.62;83.96
27643;BME280;15053;48.618;10.024;2023-04-09T01:23:46;94825.59;;;6.61;83.84
27643;BME280;15053;48.618;10.024;2023-04-09T01:29:21;94830.28;;;6.64;83.58
27643;BME280;15053;48.618;10.024;2023-04-09T01:31:49;94819.94;;;6.64;84.24
27643;BME280;15053;48.618;10.024;2023-04-09T01:34:17;94816.81;;;6.62;84.03
27643;BME280;15053;48.618;10.024;2023-04-09T01:36:51;94828.44;;;6.60;83.83
27643;BME280;15053;48.618;10.024;2023-04-09T01:39:19;94823.75;;;6.57;84.28
27643;BME280;15053;48.618;10.024;2023-04-09T01:41:47;94813.63;;;6.50;83.70
27643;BME280;15053;48.618;10.024;2023-04-09T01:44:16;94819.84;;;6.54;84.25
27643;BME280;15053;48.618;10.024;2023-04-09T01:46:45;94814.16;;;6.52;83.79
27643;BME280;15053;48.618;10.024;2023-04-09T01:49:12;94816.16;;;6.45;83.78
27643;BME280;15053;48.618;10.024;2023-04-09T01:51:40;94824.97;;;6.49;83.83
27643;BME280;15053;48.618;10.024;2023-04-09T01:54:06;94817.22;;;6.49;84.01
27643;BME280;15053;48.618;10.024;2023-04-09T01:56:47;94817.72;;;6.46;84.31
27643;BME280;15053;48.618;10.024;2023-04-09T01:59:14;94819.22;;;6.37;84.88
27643;BME280;15053;48.618;10.024;2023-04-09T02:02:27;94822.81;;;6.36;83.78
27643;BME280;15053;48.618;10.024;2023-04-09T02:04:39;94825.34;;;6.31;84.94
27643;BME280;15053;48.618;10.024;2023-04-09T02:07:09;94822.47;;;6.27;84.51
27643;BME280;15053;48.618;10.024;2023-04-09T02:09:39;94825.53;;;6.24;85.10
27643;BME280;15053;48.618;10.024;2023-04-09T02:12:11;94821.16;;;6.25;84.88
27643;BME280;15053;48.618;10.024;2023-04-09T02:14:39;94822.25;;;6.29;84.69
27643;BME280;15053;48.618;10.024;2023-04-09T02:17:06;94823.56;;;6.31;85.45
27643;BME280;15053;48.618;10.024;2023-04-09T02:19:44;94816.56;;;6.32;84.90
27643;BME280;15053;48.618;10.024;2023-04-09T02:22:13;94817.63;;;6.36;85.56
27643;BME280;15053;48.618;10.024;2023-04-09T02:24:40;94825.44;;;6.41;85.25
27643;BME280;15053;48.618;10.024;2023-04-09T02:27:07;94819.47;;;6.40;85.14
27643;BME280;15053;48.618;10.024;2023-04-09T02:29:34;94819.97;;;6.37;84.93
27643;BME280;15053;48.618;10.024;2023-04-09T02:32:00;94822.81;;;6.36;85.22
27643;BME280;15053;48.618;10.024;2023-04-09T02:34:27;94821.53;;;6.38;85.45
27643;BME280;15053;48.618;10.024;2023-04-09T02:36:53;94828.28;;;6.39;85.57
27643;BME280;15053;48.618;10.024;2023-04-09T02:39:20;94825.44;;;6.41;85.04
27643;BME280;15053;48.618;10.024;2023-04-09T02:41:47;94827.00;;;6.42;85.31
27643;BME280;15053;48.618;10.024;2023-04-09T02:44:14;94827.53;;;6.44;84.58
27643;BME280;15053;48.618;10.024;2023-04-09T02:46:41;94829.09;;;6.45;84.97
27643;BME280;15053;48.618;10.024;2023-04-09T02:49:07;94830.13;;;6.44;85.25
27643;BME280;15053;48.618;10.024;2023-04-09T02:51:34;94828.06;;;6.46;84.94
27643;BME280;15053;48.618;10.024;2023-04-09T02:54:02;94827.03;;;6.47;85.21
27643;BME280;15053;48.618;10.024;2023-04-09T02:56:28;94827.03;;;6.47;85.05
27643;BME280;15053;48.618;10.024;2023-04-09T02:58:55;94818.19;;;6.43;84.77
27643;BME280;15053;48.618;10.024;2023-04-09T03:01:21;94823.38;;;6.43;84.79
27643;BME280;15053;48.618;10.024;2023-04-09T03:03:48;94830.13;;;6.44;84.91
27643;BME280;15053;48.618;10.024;2023-04-09T03:06:14;94823.38;;;6.43;84.77
27643;BME280;15053;48.618;10.024;2023-04-09T03:08:41;94819.00;;;6.43;85.33
27643;BME280;15053;48.618;10.024;2023-04-09T03:11:07;94814.59;;;6.44;84.65
27643;BME280;15053;48.618;10.024;2023-04-09T03:13:34;94812.28;;;6.42;85.64
27643;BME280;15053;48.618;10.024;2023-04-09T03:16:00;94802.94;;;6.41;85.19
27643;BME280;15053;48.618;10.024;2023-04-09T03:18:27;94815.88;;;6.41;85.86
27643;BME280;15053;48.618;10.024;2023-04-09T03:20:53;94803.69;;;6.37;84.76
27643;BME280;15053;48.618;10.024;2023-04-09T03:23:20;94807.28;;;6.36;86.04
27643;BME280;15053;48.618;10.024;2023-04-09T03:25:47;94803.69;;;6.37;85.34
27643;BME280;15053;48.618;10.024;2023-04-09T03:28:15;94803.13;;;6.35;85.81
27643;BME280;15053;48.618;10.024;2023-04-09T03:30:49;94797.44;;;6.33;85.75
27643;BME280;15053;48.618;10.024;2023-04-09T03:33:15;94807.47;;;6.29;85.50
27643;BME280;15053;48.618;10.024;2023-04-09T03:35:48;94800.78;;;6.28;86.45
27643;BME280;15053;48.618;10.024;2023-04-09T03:38:18;94804.16;;;6.29;85.87
27643;BME280;15053;48.618;10.024;2023-04-09T03:40:45;94799.50;;;6.31;86.15
27643;BME280;15053;48.618;10.024;2023-04-09T03:43:11;94807.00;;;6.32;85.35
27643;BME280;15053;48.618;10.024;2023-04-09T03:45:46;94802.59;;;6.33;86.16
27643;BME280;15053;48.618;10.024;2023-04-09T03:48:19;94803.13;;;6.35;85.20
27643;BME280;15053;48.618;10.024;2023-04-09T03:50:46;94801.03;;;6.32;86.20
27643;BME280;15053;48.618;10.024;2023-04-09T03:53:18;94798.72;;;6.30;85.60
27643;BME280;15053;48.618;10.024;2023-04-09T03:55:44;94799.25;;;6.32;85.29
27643;BME280;15053;48.618;10.024;2023-04-09T03:58:18;94801.28;;;6.30;85.86
27643;BME280;15053;48.618;10.024;2023-04-09T04:00:46;94797.41;;;6.28;85.36
27643;BME280;15053;48.618;10.024;2023-04-09T04:03:31;94809.25;;;6.24;86.33
27643;BME280;15053;48.618;10.024;2023-04-09T04:06:07;94805.13;;;6.23;85.94
27643;BME280;15053;48.618;10.024;2023-04-09T04:08:43;94804.56;;;6.21;85.86
27643;BME280;15053;48.618;10.024;2023-04-09T04:11:10;94802.25;;;6.19;85.92
27643;BME280;15053;48.618;10.024;2023-04-09T04:13:38;94804.03;;;6.19;86.67
27643;BME280;15053;48.618;10.024;2023-04-09T04:16:08;94807.66;;;6.18;85.53
27643;BME280;15053;48.618;10.024;2023-04-09T04:18:36;94807.09;;;6.16;86.40
27643;BME280;15053;48.618;10.024;2023-04-09T04:21:03;94808.16;;;6.15;86.27
27643;BME280;15053;48.618;10.024;2023-04-09T04:23:32;94813.81;;;6.12;86.30
27643;BME280;15053;48.618;10.024;2023-04-09T04:26:15;94815.09;;;6.09;85.23
27643;BME280;15053;48.618;10.024;2023-04-09T04:28:41;94813.50;;;6.08;85.94
27643;BME280;15053;48.618;10.024;2023-04-09T04:31:12;94806.25;;;6.05;85.79
27643;BME280;15053;48.618;10.024;2023-04-09T04:33:41;94814.25;;;6.04;85.93
27643;BME280;15053;48.618;10.024;2023-04-09T04:36:12;94806.72;;;6.02;86.42
27643;BME280;15053;48.618;10.024;2023-04-09T04:38:48;94808.28;;;6.03;86.27
27643;BME280;15053;48.618;10.024;2023-04-09T04:41:22;94813.47;;;6.03;85.88
27643;BME280;15053;48.618;10.024;2023-04-09T04:44:06;94824.59;;;6.04;86.23
27643;BME280;15053;48.618;10.024;2023-04-09T04:46:32;94812.16;;;6.01;87.04
27643;BME280;15053;48.618;10.024;2023-04-09T04:48:59;94818.34;;;6.00;86.04
27643;BME280;15053;48.618;10.024;2023-04-09T04:51:30;94823.75;;;5.98;85.68
27643;BME280;15053;48.618;10.024;2023-04-09T04:54:02;94820.09;;;5.94;86.58
27643;BME280;15053;48.618;10.024;2023-04-09T04:56:29;94820.09;;;5.94;86.08
27643;BME280;15053;48.618;10.024;2023-04-09T04:59:04;94825.22;;;5.89;86.44
27643;BME280;15053;48.618;10.024;2023-04-09T05:01:42;94831.91;;;5.85;87.07
27643;BME280;15053;48.618;10.024;2023-04-09T05:04:11;94821.06;;;5.88;86.79
27643;BME280;15053;48.618;10.024;2023-04-09T05:06:38;94821.63;;;5.90;86.99
27643;BME280;15053;48.618;10.024;2023-04-09T05:09:08;94830.69;;;5.92;87.18
27643;BME280;15053;48.618;10.024;2023-04-09T05:11:53;94828.09;;;5.92;87.12
27643;BME280;15053;48.618;10.024;2023-04-09T05:14:20;94828.09;;;5.92;86.62
27643;BME280;15053;48.618;10.024;2023-04-09T05:16:47;94831.22;;;5.94;86.18
27643;BME280;15053;48.618;10.024;2023-04-09T05:19:16;94835.59;;;5.94;86.75
27643;BME280;15053;48.618;10.024;2023-04-09T05:21:43;94841.03;;;5.92;86.57
27643;BME280;15053;48.618;10.024;2023-04-09T05:24:13;94822.31;;;5.85;86.79
27643;BME280;15053;48.618;10.024;2023-04-09T05:26:40;94839.72;;;5.90;85.96
27643;BME280;15053;48.618;10.024;2023-04-09T05:29:06;94835.81;;;5.87;85.97
27643;BME280;15053;48.618;10.024;2023-04-09T05:31:33;94842.78;;;5.87;86.61
27643;BME280;15053;48.618;10.024;2023-04-09T05:34:04;94841.44;;;5.84;86.23
27643;BME280;15053;48.618;10.024;2023-04-09T05:36:44;94844.72;;;5.80;86.30
27643;BME280;15053;48.618;10.024;2023-04-09T05:39:11;94844.19;;;5.78;85.89
27643;BME280;15053;48.618;10.024;2023-04-09T05:41:37;94838.22;;;5.77;85.79
27643;BME280;15053;48.618;10.024;2023-04-09T05:44:22;94842.63;;;5.77;85.36
27643;BME280;15053;48.618;10.024;2023-04-09T05:46:52;94838.97;;;5.73;86.03
27643;BME280;15053;48.618;10.024;2023-04-09T05:49:24;94843.81;;;5.69;86.31
27643;BME280;15053;48.618;10.024;2023-04-09T05:51:56;94837.34;;;5.67;86.30
27643;BME280;15053;48.618;10.024;2023-04-09T05:54:26;94840.72;;;5.67;85.83
27643;BME280;15053;48.618;10.024;2023-04-09T05:56:52;94850.03;;;5.68;85.85
27643;BME280;15053;48.618;10.024;2023-04-09T05:59:20;94849.31;;;5.73;85.85
27643;BME280;15053;48.618;10.024;2023-04-09T06:01:47;94843.97;;;5.79;85.99
27643;BME280;15053;48.618;10.024;2023-04-09T06:04:14;94845.50;;;5.80;86.63
27643;BME280;15053;48.618;10.024;2023-04-09T06:06:41;94856.63;;;5.81;86.09
27643;BME280;15053;48.618;10.024;2023-04-09T06:09:07;94860.69;;;5.77;86.37
27643;BME280;15053;48.618;10.024;2023-04-09T06:11:36;94866.56;;;5.67;87.44
27643;BME280;15053;48.618;10.024;2023-04-09T06:14:02;94869.38;;;5.66;86.71
27643;BME280;15053;48.618;10.024;2023-04-09T06:16:29;94869.38;;;5.66;88.02
27643;BME280;15053;48.618;10.024;2023-04-09T06:18:55;94866.56;;;5.67;88.45
27643;BME280;15053;48.618;10.024;2023-04-09T06:21:22;94867.88;;;5.70;88.31
27643;BME280;15053;48.618;10.024;2023-04-09T06:23:49;94866.91;;;5.76;88.81
27643;BME280;15053;48.618;10.024;2023-04-09T06:26:17;94871.34;;;5.80;88.28
27643;BME280;15053;48.618;10.024;2023-04-09T06:28:43;94873.44;;;5.83;88.18
27643;BME280;15053;48.618;10.024;2023-04-09T06:31:09;94875.84;;;5.85;88.59
27643;BME280;15053;48.618;10.024;2023-04-09T06:33:36;94876.81;;;5.84;89.31
27643;BME280;15053;48.618;10.024;2023-04-09T06:36:03;94870.16;;;5.88;89.41
27643;BME280;15053;48.618;10.024;2023-04-09T06:38:29;94874.09;;;5.90;89.11
27643;BME280;15053;48.618;10.024;2023-04-09T06:40:55;94867.88;;;5.91;89.37
27643;BME280;15053;48.618;10.024;2023-04-09T06:43:22;94877.44;;;5.91;89.76
27643;BME280;15053;48.618;10.024;2023-04-09T06:45:51;94876.16;;;5.93;89.25
27643;BME280;15053;48.618;10.024;2023-04-09T06:48:17;94880.59;;;5.93;89.38
27643;BME280;15053;48.618;10.024;2023-04-09T06:50:44;94877.44;;;5.91;89.39
27643;BME280;15053;48.618;10.024;2023-04-09T06:53:10;94883.91;;;5.93;88.71
27643;BME280;15053;48.618;10.024;2023-04-09T06:55:37;94884.97;;;5.92;88.96
27643;BME280;15053;48.618;10.024;2023-04-09T06:58:03;94885.19;;;5.91;89.13
27643;BME280;15053;48.618;10.024;2023-04-09T07:00:30;94890.13;;;5.92;88.56
27643;BME280;15053;48.618;10.024;2023-04-09T07:02:56;94892.25;;;5.96;88.04
27643;BME280;15053;48.618;10.024;2023-04-09T07:05:23;94886.81;;;5.97;87.80
27643;BME280;15053;48.618;10.024;2023-04-09T07:07:50;94882.13;;;5.94;87.75
27643;BME280;15053;48.618;10.024;2023-04-09T07:10:16;94885.50;;;5.94;88.46
27643;BME280;15053;48.618;10.024;2023-04-09T07:12:42;94891.69;;;5.93;86.96
27643;BME280;15053;48.618;10.024;2023-04-09T07:15:09;94895.53;;;5.91;86.88
27643;BME280;15053;48.618;10.024;2023-04-09T07:17:35;94892.66;;;5.87;87.53
27643;BME280;15053;48.618;10.024;2023-04-09T07:20:02;94897.06;;;5.87;86.73
27643;BME280;15053;48.618;10.024;2023-04-09T07:22:29;94906.91;;;5.90;87.03
27643;BME280;15053;48.618;10.024;2023-04-09T07:24:56;94900.94;;;5.89;86.87
27643;BME280;15053;48.618;10.024;2023-04-09T07:27:24;94906.59;;;5.86;86.65
27643;BME280;15053;48.618;10.024;2023-04-09T07:29:56;94909.19;;;5.86;87.09
27643;BME280;15053;48.618;10.024;2023-04-09T07:32:26;94906.25;;;5.83;86.48
27643;BME280;15053;48.618;10.024;2023-04-09T07:34:54;94910.50;;;5.89;86.91
27643;BME280;15053;48.618;10.024;2023-04-09T07:37:21;94918.25;;;5.89;86.85
27643;BME280;15053;48.618;10.024;2023-04-09T07:39:48;94916.78;;;5.93;86.06
27643;BME280;15053;48.618;10.024;2023-04-09T07:42:14;94919.41;;;5.98;86.16
27643;BME280;15053;48.618;10.024;2023-04-09T07:44:41;94922.28;;;6.02;86.03
27643;BME280;15053;48.618;10.024;2023-04-09T07:47:09;94917.66;;;6.04;85.86
27643;BME280;15053;48.618;10.024;2023-04-09T07:49:36;94921.75;;;6.00;85.70
27643;BME280;15053;48.618;10.024;2023-04-09T07:52:03;94925.41;;;6.04;86.09
27643;BME280;15053;48.618;10.024;2023-04-09T07:54:31;94921.44;;;6.18;85.25
27643;BME280;15053;48.618;10.024;2023-04-09T07:56:57;94920.56;;;6.34;85.10
27643;BME280;15053;48.618;10.024;2023-04-09T07:59:24;94914.53;;;6.50;85.55
27643;BME280;15053;48.618;10.024;2023-04-09T08:01:51;94913.44;;;6.73;85.12
27643;BME280;15053;48.618;10.024;2023-04-09T08:04:18;94921.19;;;7.04;84.89
27643;BME280;15053;48.618;10.024;2023-04-09T08:06:44;94915.22;;;7.41;84.53
27643;BME280;15053;48.618;10.024;2023-04-09T08:09:19;94906.03;;;7.65;82.86
27643;BME280;15053;48.618;10.024;2023-04-09T08:11:47;94914.66;;;7.86;81.56
27643;BME280;15053;48.618;10.024;2023-04-09T08:14:14;94919.63;;;7.92;80.79
27643;BME280;15053;48.618;10.024;2023-04-09T08:16:43;94913.16;;;7.95;79.81
27643;BME280;15053;48.618;10.024;2023-04-09T08:19:11;94916.00;;;7.93;79.20
27643;BME280;15053;48.618;10.024;2023-04-09T08:21:39;94915.22;;;7.93;78.27
27643;BME280;15053;48.618;10.024;2023-04-09T08:24:09;94913.75;;;8.12;77.61
27643;BME280;15053;48.618;10.024;2023-04-09T08:26:37;94915.84;;;8.25;76.89
27643;BME280;15053;48.618;10.024;2023-04-09T08:29:04;94919.22;;;8.25;76.18
27643;BME280;15053;48.618;10.024;2023-04-09T08:31:30;94917.94;;;8.23;76.65
27643;BME280;15053;48.618;10.024;2023-04-09T08:33:57;94921.81;;;8.15;76.45
27643;BME280;15053;48.618;10.024;2023-04-09T08:36:24;94917.09;;;8.07;75.93
27643;BME280;15053;48.618;10.024;2023-04-09T08:38:51;94918.16;;;8.11;76.46
27643;BME280;15053;48.618;10.024;2023-04-09T08:41:25;94916.91;;;8.24;76.19
27643;BME280;15053;48.618;10.024;2023-04-09T08:43:54;94918.78;;;8.44;75.55
27643;BME280;15053;48.618;10.024;2023-04-09T08:46:25;94918.28;;;8.52;75.38
27643;BME280;15053;48.618;10.024;2023-04-09T08:48:52;94913.34;;;8.55;75.46
27643;BME280;15053;48.618;10.024;2023-04-09T08:51:21;94919.88;;;8.73;74.70
27643;BME280;15053;48.618;10.024;2023-04-09T08:53:52;94911.06;;;8.94;74.94
27643;BME280;15053;48.618;10.024;2023-04-09T08:56:20;94911.53;;;9.31;74.08
27643;BME280;15053;48.618;10.024;2023-04-09T08:58:48;94916.69;;;9.62;73.08
27643;BME280;15053;48.618;10.024;2023-04-09T09:01:26;94919.31;;;9.67;71.54
27643;BME280;15053;48.618;10.024;2023-04-09T09:06:28;94918.28;;;9.58;71.39
27643;BME280;15053;48.618;10.024;2023-04-09T09:09:09;94920.34;;;9.50;71.04
27643;BME280;15053;48.618;10.024;2023-04-09T09:11:39;94920.13;;;9.47;70.74
27643;BME280;15053;48.618;10.024;2023-04-09T09:14:10;94923.50;;;9.42;69.94
27643;BME280;15053;48.618;10.024;2023-04-09T09:16:39;94920.88;;;9.42;69.82
27643;BME280;15053;48.618;10.024;2023-04-09T09:19:29;94920.28;;;9.76;69.80
27643;BME280;15053;48.618;10.024;2023-04-09T09:21:57;94922.78;;;10.06;68.81
27643;BME280;15053;48.618;10.024;2023-04-09T09:24:24;94921.47;;;10.24;67.37
27643;BME280;15053;48.618;10.024;2023-04-09T09:26:51;94920.88;;;10.37;67.04
27643;BME280;15053;48.618;10.024;2023-04-09T09:29:17;94917.44;;;10.46;66.64
27643;BME280;15053;48.618;10.024;2023-04-09T09:31:47;94922.06;;;10.59;66.23
27643;BME280;15053;48.618;10.024;2023-04-09T09:34:15;94916.78;;;10.70;65.11
27643;BME280;15053;48.618;10.024;2023-04-09T09:36:45;94915.88;;;10.89;64.27
27643;BME280;15053;48.618;10.024;2023-04-09T09:39:13;94916.25;;;11.06;63.87
27643;BME280;15053;48.618;10.024;2023-04-09T09:41:39;94921.00;;;10.99;63.58
27643;BME280;15053;48.618;10.024;2023-04-09T09:44:08;94913.25;;;10.89;63.27
27643;BME280;15053;48.618;10.024;2023-04-09T09:46:36;94916.94;;;10.83;63.74
27643;BME280;15053;48.618;10.024;2023-04-09T09:49:04;94912.97;;;10.91;64.01
27643;BME280;15053;48.618;10.024;2023-04-09T09:51:32;94915.59;;;11.24;63.36
27643;BME280;15053;48.618;10.024;2023-04-09T09:54:00;94911.91;;;11.54;61.30
27643;BME280;15053;48.618;10.024;2023-04-09T09:56:30;94909.72;;;11.66;60.19
27643;BME280;15053;48.618;10.024;2023-04-09T09:59:16;94907.56;;;11.73;59.49
27643;BME280;15053;48.618;10.024;2023-04-09T10:01:50;94902.44;;;11.63;59.60
27643;BME280;15053;48.618;10.024;2023-04-09T10:04:20;94894.84;;;11.67;58.95
27643;BME280;15053;48.618;10.024;2023-04-09T10:06:48;94895.97;;;11.84;58.86
27643;BME280;15053;48.618;10.024;2023-04-09T10:09:19;94889.97;;;12.08;58.80
27643;BME280;15053;48.618;10.024;2023-04-09T10:11:47;94890.06;;;12.21;58.24
27643;BME280;15053;48.618;10.024;2023-04-09T10:14:15;94894.34;;;12.12;57.20
27643;BME280;15053;48.618;10.024;2023-04-09T10:16:42;94882.63;;;12.10;56.86
27643;BME280;15053;48.618;10.024;2023-04-09T10:19:08;94886.53;;;12.31;56.80
27643;BME280;15053;48.618;10.024;2023-04-09T10:21:50;94884.28;;;12.62;55.87
27643;BME280;15053;48.618;10.024;2023-04-09T10:24:19;94881.63;;;12.80;55.06
27643;BME280;15053;48.618;10.024;2023-04-09T10:26:45;94875.50;;;12.90;54.01
27643;BME280;15053;48.618;10.024;2023-04-09T10:29:14;94882.97;;;12.96;53.98
27643;BME280;15053;48.618;10.024;2023-04-09T10:31:54;94882.13;;;13.01;52.76
27643;BME280;15053;48.618;10.024;2023-04-09T10:34:22;94888.00;;;13.12;52.86
27643;BME280;15053;48.618;10.024;2023-04-09T10:36:51;94884.03;;;12.95;52.34
27643;BME280;15053;48.618;10.024;2023-04-09T10:39:25;94885.91;;;12.76;52.43
27643;BME280;15053;48.618;10.024;2023-04-09T10:41:53;94881.53;;;12.53;53.13
27643;BME280;15053;48.618;10.024;2023-04-09T10:44:21;94884.50;;;12.65;52.62
27643;BME280;15053;48.618;10.024;2023-04-09T10:46:48;94891.56;;;12.46;52.18
27643;BME280;15053;48.618;10.024;2023-04-09T10:49:19;94886.75;;;12.34;52.24
27643;BME280;15053;48.618;10.024;2023-04-09T10:51:54;94886.47;;;12.36;52.23
27643;BME280;15053;48.618;10.024;2023-04-09T10:59:38;94870.91;;;13.46;50.64
27643;BME280;15053;48.618;10.024;2023-04-09T11:02:09;94874.22;;;13.52;49.14
27643;BME280;15053;48.618;10.024;2023-04-09T11:07:55;94876.94;;;13.74;48.36
27643;BME280;15053;48.618;10.024;2023-04-09T11:10:23;94875.88;;;13.89;47.38
27643;BME280;15053;48.618;10.024;2023-04-09T11:12:49;94875.47;;;13.95;47.15
27643;BME280;15053;48.618;10.024;2023-04-09T11:15:17;94871.59;;;14.06;47.16
27643;BME280;15053;48.618;10.024;2023-04-09T11:17:48;94865.59;;;14.19;46.68
27643;BME280;15053;48.618;10.024;2023-04-09T11:20:25;94871.50;;;14.39;46.39
27643;BME280;15053;48.618;10.024;2023-04-09T11:22:53;94870.56;;;14.57;46.63
27643;BME280;15053;48.618;10.024;2023-04-09T11:25:22;94859.63;;;14.77;46.63
27643;BME280;15053;48.618;10.024;2023-04-09T11:27:49;94858.84;;;14.99;46.53
27643;BME280;15053;48.618;10.024;2023-04-09T11:30:16;94857.78;;;15.30;46.57
27643;BME280;15053;48.618;10.024;2023-04-09T11:32:43;94845.31;;;15.58;46.21
27643;BME280;15053;48.618;10.024;2023-04-09T11:35:14;94852.47;;;15.75;45.32
27643;BME280;15053;48.618;10.024;2023-04-09T11:37:42;94849.44;;;15.90;44.38
27643;BME280;15053;48.618;10.024;2023-04-09T11:40:23;94859.53;;;15.66;43.84
27643;BME280;15053;48.618;10.024;2023-04-09T11:42:52;94862.16;;;15.57;43.39
27643;BME280;15053;48.618;10.024;2023-04-09T11:45:22;94869.22;;;15.04;43.10
27643;BME280;15053;48.618;10.024;2023-04-09T11:47:50;94869.00;;;14.56;44.52
27643;BME280;15053;48.618;10.024;2023-04-09T11:50:17;94865.09;;;14.67;45.62
27643;BME280;15053;48.618;10.024;2023-04-09T11:52:44;94867.50;;;14.99;46.16
27643;BME280;15053;48.618;10.024;2023-04-09T11:55:22;94872.09;;;15.16;45.81
27643;BME280;15053;48.618;10.024;2023-04-09T11:57:50;94880.22;;;14.70;45.57
27643;BME280;15053;48.618;10.024;2023-04-09T12:00:18;94883.41;;;14.31;46.33
27643;BME280;15053;48.618;10.024;2023-04-09T12:02:47;94882.75;;;13.98;46.19
27643;BME280;15053;48.618;10.024;2023-04-09T12:05:22;94880.66;;;13.73;47.14
27643;BME280;15053;48.618;10.024;2023-04-09T12:07:51;94889.16;;;13.65;46.75
27643;BME280;15053;48.618;10.024;2023-04-09T12:10:30;94878.56;;;13.43;47.35
27643;BME280;15053;48.618;10.024;2023-04-09T12:13:05;94883.81;;;13.43;47.37
27643;BME280;15053;48.618;10.024;2023-04-09T12:15:33;94872.00;;;14.00;48.22
27643;BME280;15053;48.618;10.024;2023-04-09T12:18:00;94863.66;;;14.61;47.71
27643;BME280;15053;48.618;10.024;2023-04-09T12:20:35;94863.56;;;15.10;46.78
27643;BME280;15053;48.618;10.024;2023-04-09T12:23:03;94872.16;;;15.02;45.94
27643;BME280;15053;48.618;10.024;2023-04-09T12:25:35;94871.66;;;14.78;44.87
27643;BME280;15053;48.618;10.024;2023-04-09T12:28:02;94875.59;;;15.11;45.42
27643;BME280;15053;48.618;10.024;2023-04-09T12:30:29;94871.97;;;14.99;45.58
27643;BME280;15053;48.618;10.024;2023-04-09T12:32:55;94879.13;;;14.85;45.45
27643;BME280;15053;48.618;10.024;2023-04-09T12:35:22;94872.31;;;14.48;45.73
27643;BME280;15053;48.618;10.024;2023-04-09T12:37:48;94868.69;;;14.08;45.76
27643;BME280;15053;48.618;10.024;2023-04-09T12:40:16;94880.53;;;13.78;46.09
27643;BME280;15053;48.618;10.024;2023-04-09T12:42:44;94873.06;;;13.72;46.99
27643;BME280;15053;48.618;10.024;2023-04-09T12:45:13;94861.72;;;14.03;46.92
27643;BME280;15053;48.618;10.024;2023-04-09T12:47:41;94871.94;;;14.54;46.40
27643;BME280;15053;48.618;10.024;2023-04-09T12:50:08;94860.09;;;15.01;45.84
27643;BME280;15053;48.618;10.024;2023-04-09T12:52:35;94862.19;;;14.91;44.89
27643;BME280;15053;48.618;10.024;2023-04-09T12:55:03;94865.47;;;14.96;44.35
27643;BME280;15053;48.618;10.024;2023-04-09T12:57:31;94862.72;;;15.01;43.75
27643;BME280;15053;48.618;10.024;2023-04-09T12:59:58;94860.94;;;14.66;43.33
27643;BME280;15053;48.618;10.024;2023-04-09T13:02:24;94873.16;;;14.35;44.42
27643;BME280;15053;48.618;10.024;2023-04-09T13:04:51;94852.75;;;14.67;44.73
27643;BME280;15053;48.618;10.024;2023-04-09T13:07:20;94858.59;;;15.31;44.54
27643;BME280;15053;48.618;10.024;2023-04-09T13:09:48;94847.88;;;15.89;44.36
27643;BME280;15053;48.618;10.024;2023-04-09T13:12:17;94849.69;;;16.36;43.83
27643;BME280;15053;48.618;10.024;2023-04-09T13:14:45;94848.75;;;16.41;41.50
27643;BME280;15053;48.618;10.024;2023-04-09T13:17:12;94844.03;;;15.86;41.13
27643;BME280;15053;48.618;10.024;2023-04-09T13:19:38;94844.78;;;15.48;41.58
27643;BME280;15053;48.618;10.024;2023-04-09T13:22:07;94848.50;;;15.47;42.31
27643;BME280;15053;48.618;10.024;2023-04-09T13:24:34;94852.53;;;15.30;42.44
27643;BME280;15053;48.618;10.024;2023-04-09T13:27:05;94852.69;;;15.03;42.02